createdAt,value
2022-11-12T00:03:52.106Z,51.76
2022-11-12T00:09:12.656Z,51.59
2022-11-12T00:14:33.207Z,51.67
2022-11-12T00:19:54.291Z,51.69
2022-11-12T00:25:15.512Z,51.77
2022-11-12T00:30:38.860Z,51.63
2022-11-12T00:36:00.754Z,51.75
2022-11-12T00:41:21.506Z,51.69
2022-11-12T00:46:41.962Z,51.52
2022-11-12T00:52:02.748Z,51.89
2022-11-12T00:57:23.469Z,51.56
2022-11-12T01:02:49.432Z,51.34
2022-11-12T01:08:11.593Z,51.40
2022-11-12T01:13:32.077Z,51.58
2022-11-12T01:18:55.389Z,51.68
2022-11-12T01:24:16.372Z,51.51
2022-11-12T01:29:36.863Z,51.49
2022-11-12T01:34:57.857Z,51.63
2022-11-12T01:40:18.632Z,51.36
2022-11-12T01:45:45.783Z,51.48
2022-11-12T01:51:08.024Z,51.64
2022-11-12T01:56:31.509Z,51.48
2022-11-12T02:01:51.975Z,51.26
2022-11-12T02:07:13.057Z,51.17
2022-11-12T02:12:52.061Z,51.63
2022-11-12T02:18:12.664Z,51.58
2022-11-12T02:23:33.133Z,51.48
2022-11-12T02:28:53.556Z,51.34
2022-11-12T02:34:14.311Z,51.54
2022-11-12T02:39:35.292Z,51.51
2022-11-12T02:44:55.830Z,51.47
2022-11-12T02:50:17.013Z,51.49
2022-11-12T02:55:37.285Z,51.65
2022-11-12T03:00:58.575Z,51.67
2022-11-12T03:06:19.086Z,51.30
2022-11-12T03:11:39.790Z,51.32
2022-11-12T03:17:00.482Z,51.28
2022-11-12T03:22:21.279Z,51.33
2022-11-12T03:27:41.982Z,51.22
2022-11-12T03:33:02.569Z,51.32
2022-11-12T03:38:23.538Z,51.19
2022-11-12T03:43:44.146Z,51.40
2022-11-12T03:49:04.676Z,51.29
2022-11-12T03:54:25.071Z,51.39
2022-11-12T03:59:45.650Z,51.47
2022-11-12T04:05:26.482Z,51.55
2022-11-12T04:10:47.696Z,51.24
2022-11-12T04:16:30.339Z,51.35
2022-11-12T04:21:56.499Z,51.35
2022-11-12T04:27:21.485Z,51.48
2022-11-12T04:32:54.938Z,51.48
2022-11-12T04:38:15.393Z,51.29
2022-11-12T04:43:54.733Z,51.40
2022-11-12T04:49:15.380Z,51.34
2022-11-12T04:54:35.824Z,51.41
2022-11-12T04:59:56.238Z,51.57
2022-11-12T05:05:17.073Z,51.46
2022-11-12T05:10:37.689Z,51.81
2022-11-12T05:15:58.216Z,51.54
2022-11-12T05:21:43.173Z,51.29
2022-11-12T05:27:06.481Z,51.27
2022-11-12T05:32:27.704Z,51.32
2022-11-12T05:37:48.161Z,51.05
2022-11-12T05:43:08.727Z,51.21
2022-11-12T05:48:29.670Z,51.36
2022-11-12T05:53:50.727Z,51.42
2022-11-12T05:59:13.580Z,51.21
2022-11-12T06:04:34.352Z,51.30
2022-11-12T06:09:54.940Z,51.27
2022-11-12T06:15:15.960Z,51.34
2022-11-12T06:20:36.683Z,51.50
2022-11-12T06:25:57.150Z,51.47
2022-11-12T06:31:18.778Z,51.40
2022-11-12T06:36:39.709Z,51.44
2022-11-12T06:42:02.220Z,51.53
2022-11-12T06:47:22.919Z,51.60
2022-11-12T06:52:43.633Z,51.67
2022-11-12T06:58:04.010Z,51.76
2022-11-12T07:03:24.844Z,51.73
2022-11-12T07:08:45.316Z,51.79
2022-11-12T07:14:09.303Z,51.90
2022-11-12T07:19:29.809Z,51.78
2022-11-12T07:24:50.291Z,51.60
2022-11-12T07:30:11.319Z,51.25
2022-11-12T07:35:31.625Z,51.19
2022-11-12T07:40:52.391Z,51.29
2022-11-12T07:46:18.601Z,51.33
2022-11-12T07:51:39.251Z,51.30
2022-11-12T07:56:59.803Z,51.07
2022-11-12T08:02:20.115Z,51.23
2022-11-12T08:07:40.925Z,51.19
2022-11-12T08:13:03.586Z,51.27
2022-11-12T08:18:24.384Z,50.87
2022-11-12T08:23:46.202Z,50.94
2022-11-12T08:29:08.656Z,51.10
2022-11-12T08:34:29.414Z,51.18
2022-11-12T08:39:50.046Z,51.23
2022-11-12T08:45:11.173Z,51.18
2022-11-12T08:50:31.862Z,51.07
2022-11-12T08:55:56.921Z,51.21
2022-11-12T09:01:17.669Z,51.35
2022-11-12T09:06:38.364Z,51.36
2022-11-12T09:11:58.754Z,51.21
2022-11-12T09:17:19.520Z,50.84
2022-11-12T09:22:40.294Z,50.95
2022-11-12T09:28:26.932Z,51.21
2022-11-12T09:33:47.578Z,51.26
2022-11-12T09:39:08.494Z,51.14
2022-11-12T09:44:36.520Z,51.13
2022-11-12T09:50:30.340Z,51.17
2022-11-12T09:55:51.164Z,51.33
2022-11-12T10:01:34.632Z,51.27
2022-11-12T10:07:09.483Z,51.15
2022-11-12T10:12:35.844Z,51.35
2022-11-12T10:18:08.906Z,51.60
2022-11-12T10:23:37.150Z,51.32
2022-11-12T10:29:30.047Z,51.19
2022-11-12T10:34:51.083Z,51.21
2022-11-12T10:40:30.640Z,51.45
2022-11-12T10:45:51.782Z,51.63
2022-11-12T10:51:30.949Z,51.60
2022-11-12T10:56:55.441Z,51.47
2022-11-12T11:02:19.224Z,51.46
2022-11-12T11:07:50.034Z,51.60
2022-11-12T11:13:21.778Z,51.66
2022-11-12T11:18:46.266Z,51.56
2022-11-12T11:24:28.946Z,51.23
2022-11-12T11:29:58.635Z,51.42
2022-11-12T11:35:49.034Z,51.44
2022-11-12T11:41:15.354Z,51.64
2022-11-12T11:47:03.502Z,51.47
2022-11-12T11:52:48.807Z,51.53
2022-11-12T11:58:45.447Z,51.47
2022-11-12T12:04:30.539Z,51.61
2022-11-12T12:10:53.461Z,51.63
2022-11-12T12:16:47.669Z,51.29
2022-11-12T12:22:16.622Z,51.41
2022-11-12T12:27:41.304Z,51.47
2022-11-12T12:33:13.801Z,51.45
2022-11-12T12:38:55.688Z,51.56
2022-11-12T12:44:16.295Z,51.47
2022-11-12T12:49:37.984Z,51.63
2022-11-12T12:55:00.053Z,51.65
2022-11-12T13:00:32.431Z,51.64
2022-11-12T13:06:07.987Z,51.62
2022-11-12T13:11:59.163Z,51.64
2022-11-12T13:17:43.410Z,51.53
2022-11-12T13:23:09.509Z,51.47
2022-11-12T13:28:30.537Z,51.24
2022-11-12T13:33:51.226Z,51.29
2022-11-12T13:39:19.619Z,51.36
2022-11-12T13:44:40.160Z,51.52
2022-11-12T13:50:02.047Z,51.33
2022-11-12T13:55:23.643Z,51.46
2022-11-12T14:00:55.966Z,51.39
2022-11-12T14:06:18.536Z,51.37
2022-11-12T14:11:44.993Z,51.29
2022-11-12T14:17:21.834Z,51.56
2022-11-12T14:22:45.394Z,51.22
2022-11-12T14:28:06.510Z,51.24
2022-11-12T14:33:28.840Z,51.38
2022-11-12T14:38:57.277Z,51.49
2022-11-12T14:44:24.892Z,51.55
2022-11-12T14:49:48.093Z,51.51
2022-11-12T14:55:15.509Z,51.57
2022-11-12T15:00:39.784Z,51.35
2022-11-12T15:06:10.537Z,51.33
2022-11-12T15:11:43.995Z,51.44
2022-11-12T15:17:06.187Z,51.39
2022-11-12T15:22:26.994Z,51.29
2022-11-12T15:27:49.313Z,51.32
2022-11-12T15:33:12.456Z,51.25
2022-11-12T15:38:38.751Z,51.52
2022-11-12T15:44:00.529Z,51.21
2022-11-12T15:49:20.958Z,51.40
2022-11-12T15:54:41.488Z,51.29
2022-11-12T16:00:08.797Z,51.23
2022-11-12T16:05:29.710Z,51.33
2022-11-12T16:10:50.487Z,51.19
2022-11-12T16:16:12.534Z,51.08
2022-11-12T16:21:33.088Z,51.12
2022-11-12T16:26:54.159Z,51.17
2022-11-12T16:32:15.643Z,51.45
2022-11-12T16:37:38.572Z,51.21
2022-11-12T16:42:58.941Z,51.31
2022-11-12T16:48:22.448Z,51.42
2022-11-12T16:53:43.539Z,51.30
2022-11-12T16:59:04.790Z,51.41
2022-11-12T17:04:25.688Z,51.35
2022-11-12T17:09:46.533Z,51.27
2022-11-12T17:15:07.987Z,51.31
2022-11-12T17:20:28.797Z,51.68
2022-11-12T17:25:49.540Z,51.56
2022-11-12T17:31:10.444Z,51.62
2022-11-12T17:36:31.146Z,51.48
2022-11-12T17:41:51.864Z,51.56
2022-11-12T17:47:12.670Z,51.76
2022-11-12T17:52:33.607Z,51.64
2022-11-12T17:57:54.103Z,51.49
2022-11-12T18:03:14.972Z,51.49
2022-11-12T18:08:35.819Z,51.56
2022-11-12T18:13:56.949Z,51.44
2022-11-12T18:19:17.566Z,51.61
2022-11-12T18:24:38.231Z,51.63
2022-11-12T18:29:58.489Z,51.93
2022-11-12T18:35:18.984Z,51.77
2022-11-12T18:40:39.223Z,51.86
2022-11-12T18:46:00.603Z,51.62
2022-11-12T18:51:21.579Z,51.72
2022-11-12T18:56:42.884Z,51.53
2022-11-12T19:02:03.737Z,51.62
2022-11-12T19:07:24.419Z,51.65
2022-11-12T19:12:44.747Z,51.43
2022-11-12T19:18:05.483Z,51.59
2022-11-12T19:23:27.831Z,51.74
2022-11-12T19:28:48.959Z,51.70
2022-11-12T19:34:09.590Z,51.70
2022-11-12T19:39:30.261Z,51.60
2022-11-12T19:44:51.154Z,51.96
2022-11-12T19:50:11.506Z,52.02
2022-11-12T19:55:38.637Z,51.51
2022-11-12T20:01:05.040Z,51.51
2022-11-12T20:06:27.333Z,51.61
2022-11-12T20:11:48.185Z,51.90
2022-11-12T20:17:08.958Z,51.66
2022-11-12T20:22:33.622Z,51.66
2022-11-12T20:27:54.056Z,51.64
2022-11-12T20:33:14.836Z,51.62
2022-11-12T20:38:43.872Z,51.63
2022-11-12T20:44:04.618Z,51.69
2022-11-12T20:49:25.561Z,51.71
2022-11-12T20:54:45.834Z,51.77
2022-11-12T21:00:10.663Z,51.95
2022-11-12T21:05:34.151Z,51.80
2022-11-12T21:10:54.844Z,51.72
2022-11-12T21:16:16.021Z,51.62
2022-11-12T21:21:36.585Z,51.32
2022-11-12T21:26:57.384Z,51.57
2022-11-12T21:32:18.076Z,51.36
2022-11-12T21:37:38.515Z,51.59
2022-11-12T21:43:00.653Z,51.51
2022-11-12T21:48:21.458Z,51.51
2022-11-12T21:53:43.684Z,51.42
2022-11-12T21:59:04.612Z,51.56
2022-11-12T22:04:25.615Z,51.43
2022-11-12T22:09:46.377Z,51.47
2022-11-12T22:15:07.337Z,51.45
2022-11-12T22:20:27.993Z,51.35
2022-11-12T22:25:50.727Z,51.38
2022-11-12T22:31:13.991Z,51.31
2022-11-12T22:36:35.572Z,51.38
2022-11-12T22:41:56.358Z,51.55
2022-11-12T22:47:16.971Z,51.38
2022-11-12T22:52:37.452Z,51.45
2022-11-12T22:58:00.237Z,51.25
2022-11-12T23:03:20.704Z,51.31
2022-11-12T23:08:42.109Z,51.52
2022-11-12T23:14:02.952Z,51.45
2022-11-12T23:19:24.010Z,51.33
2022-11-12T23:24:44.694Z,51.31
2022-11-12T23:30:05.806Z,51.27
2022-11-12T23:35:26.766Z,51.38
2022-11-12T23:40:54.965Z,51.30
2022-11-12T23:46:16.447Z,51.26
2022-11-12T23:51:36.815Z,51.17
2022-11-12T23:56:57.822Z,51.18
